createdAt,value
2023-01-10T00:00:11.164Z,3.24
2023-01-10T00:01:16.767Z,2.96
2023-01-10T00:02:22.505Z,2.88
2023-01-10T00:03:28.123Z,3.08
2023-01-10T00:04:33.778Z,2.96
2023-01-10T00:05:39.423Z,2.48
2023-01-10T00:06:45.021Z,3.12
2023-01-10T00:07:50.677Z,3.56
2023-01-10T00:08:56.288Z,3.44
2023-01-10T00:10:01.892Z,3.20
2023-01-10T00:11:07.605Z,3.04
2023-01-10T00:12:13.212Z,2.44
2023-01-10T00:13:18.854Z,2.56
2023-01-10T00:14:24.445Z,2.64
2023-01-10T00:15:30.102Z,2.72
2023-01-10T00:16:35.728Z,2.96
2023-01-10T00:17:41.348Z,3.20
2023-01-10T00:18:46.958Z,3.84
2023-01-10T00:19:52.581Z,3.76
2023-01-10T00:20:58.215Z,3.08
2023-01-10T00:22:03.832Z,2.72
2023-01-10T00:23:09.444Z,2.84
2023-01-10T00:24:15.099Z,2.56
2023-01-10T00:25:20.702Z,3.08
2023-01-10T00:26:27.094Z,2.68
2023-01-10T00:27:32.750Z,2.88
2023-01-10T00:28:38.400Z,2.40
2023-01-10T00:29:44.023Z,2.04
2023-01-10T00:30:49.768Z,2.84
2023-01-10T00:31:55.368Z,2.44
2023-01-10T00:33:01.018Z,2.64
2023-01-10T00:34:06.640Z,2.84
2023-01-10T00:35:12.261Z,2.36
2023-01-10T00:36:17.915Z,2.92
2023-01-10T00:37:23.525Z,2.12
2023-01-10T00:38:29.152Z,1.20
2023-01-10T00:39:34.789Z,2.92
2023-01-10T00:40:40.631Z,2.52
2023-01-10T00:41:46.268Z,1.44
2023-01-10T00:42:51.899Z,2.84
2023-01-10T00:43:57.552Z,2.48
2023-01-10T00:45:03.161Z,2.40
2023-01-10T00:46:08.877Z,2.04
2023-01-10T00:47:14.495Z,2.32
2023-01-10T00:48:20.135Z,2.72
2023-01-10T00:49:25.789Z,2.84
2023-01-10T00:50:31.585Z,2.96
2023-01-10T00:51:37.240Z,4.16
2023-01-10T00:52:42.904Z,2.92
2023-01-10T00:53:48.561Z,2.72
2023-01-10T00:54:54.184Z,3.44
2023-01-10T00:56:00.506Z,3.76
2023-01-10T00:57:06.190Z,3.28
2023-01-10T00:58:12.600Z,3.60
2023-01-10T00:59:19.008Z,3.52
2023-01-10T01:00:25.627Z,4.00
2023-01-10T01:01:36.975Z,3.76
2023-01-10T01:02:44.955Z,3.52
2023-01-10T01:03:51.521Z,3.84
2023-01-10T01:05:00.102Z,3.52
2023-01-10T01:06:06.559Z,3.60
2023-01-10T01:07:12.973Z,3.64
2023-01-10T01:08:20.150Z,3.76
2023-01-10T01:09:27.988Z,3.68
2023-01-10T01:10:34.322Z,3.36
2023-01-10T01:11:40.418Z,3.40
2023-01-10T01:12:47.751Z,3.56
2023-01-10T01:13:55.952Z,3.64
2023-01-10T01:15:03.032Z,3.04
2023-01-10T01:16:09.191Z,4.32
2023-01-10T01:17:16.099Z,3.56
2023-01-10T01:18:22.943Z,3.56
2023-01-10T01:19:28.688Z,3.08
2023-01-10T01:20:35.304Z,3.40
2023-01-10T01:21:41.693Z,3.44
2023-01-10T01:22:48.177Z,3.48
2023-01-10T01:23:55.168Z,3.76
2023-01-10T01:25:01.117Z,2.80
2023-01-10T01:26:07.455Z,3.56
2023-01-10T01:27:13.851Z,3.36
2023-01-10T01:28:20.479Z,3.16
2023-01-10T01:29:38.474Z,3.68
2023-01-10T01:30:39.379Z,4.20
2023-01-10T01:31:45.543Z,4.20
2023-01-10T01:32:52.075Z,3.96
2023-01-10T01:33:59.096Z,4.36
2023-01-10T01:35:05.096Z,3.36
2023-01-10T01:36:10.772Z,3.80
2023-01-10T01:37:17.204Z,3.36
2023-01-10T01:38:23.253Z,3.40
2023-01-10T01:39:30.173Z,3.76
2023-01-10T01:40:36.397Z,4.36
2023-01-10T01:41:42.383Z,4.48
2023-01-10T01:42:48.290Z,3.52
2023-01-10T01:43:55.234Z,3.52
2023-01-10T01:45:01.984Z,4.16
2023-01-10T01:46:08.598Z,3.72
2023-01-10T01:47:15.182Z,3.24
2023-01-10T01:48:22.243Z,3.52
2023-01-10T01:49:29.639Z,3.76
2023-01-10T01:50:36.081Z,3.76
2023-01-10T01:51:42.430Z,3.68
2023-01-10T01:52:48.180Z,4.04
2023-01-10T01:53:54.476Z,3.84
2023-01-10T01:55:00.356Z,3.28
2023-01-10T01:56:06.021Z,3.76
2023-01-10T01:57:11.612Z,3.92
2023-01-10T01:58:17.189Z,3.60
2023-01-10T01:59:22.999Z,4.08
2023-01-10T02:00:28.670Z,4.44
2023-01-10T02:01:35.151Z,3.76
2023-01-10T02:02:44.121Z,3.76
2023-01-10T02:03:52.477Z,4.20
2023-01-10T02:04:58.064Z,4.64
2023-01-10T02:06:03.707Z,4.08
2023-01-10T02:07:09.346Z,4.64
2023-01-10T02:08:14.950Z,3.40
2023-01-10T02:09:20.604Z,3.40
2023-01-10T02:10:26.197Z,4.16
2023-01-10T02:11:31.869Z,4.56
2023-01-10T02:12:37.498Z,4.56
2023-01-10T02:13:43.082Z,4.08
2023-01-10T02:14:48.724Z,3.92
2023-01-10T02:15:54.373Z,3.20
2023-01-10T02:16:59.966Z,4.08
2023-01-10T02:18:05.526Z,4.24
2023-01-10T02:19:11.179Z,4.16
2023-01-10T02:20:16.785Z,4.16
2023-01-10T02:21:22.284Z,5.04
2023-01-10T02:22:27.771Z,3.92
2023-01-10T02:23:33.262Z,3.80
2023-01-10T02:24:38.735Z,3.44
2023-01-10T02:25:44.282Z,3.68
2023-01-10T02:26:49.795Z,3.84
2023-01-10T02:27:55.316Z,3.80
2023-01-10T02:29:00.834Z,3.76
2023-01-10T02:30:06.307Z,3.60
2023-01-10T02:31:11.801Z,3.36
2023-01-10T02:32:18.793Z,3.24
2023-01-10T02:33:25.471Z,3.52
2023-01-10T02:34:30.975Z,3.56
2023-01-10T02:35:36.492Z,2.96
2023-01-10T02:36:42.068Z,3.28
2023-01-10T02:37:47.648Z,4.16
2023-01-10T02:38:53.266Z,3.52
2023-01-10T02:39:58.928Z,3.92
2023-01-10T02:41:04.470Z,2.88
2023-01-10T02:42:10.076Z,3.44
2023-01-10T02:43:15.748Z,2.56
2023-01-10T02:44:21.408Z,3.28
2023-01-10T02:45:27.840Z,2.80
2023-01-10T02:46:33.710Z,3.44
2023-01-10T02:47:39.302Z,3.12
2023-01-10T02:48:44.881Z,3.72
2023-01-10T02:49:50.524Z,2.88
2023-01-10T02:50:56.178Z,2.80
2023-01-10T02:52:01.796Z,3.36
2023-01-10T02:53:07.433Z,2.92
2023-01-10T02:54:13.045Z,3.76
2023-01-10T02:55:18.660Z,2.84
2023-01-10T02:56:24.271Z,2.72
2023-01-10T02:57:29.865Z,2.72
2023-01-10T02:58:35.553Z,3.28
2023-01-10T02:59:41.206Z,3.20
2023-01-10T03:00:46.874Z,3.36
2023-01-10T03:01:52.574Z,2.64
2023-01-10T03:02:58.353Z,3.52
2023-01-10T03:04:04.022Z,3.16
2023-01-10T03:05:09.824Z,3.96
2023-01-10T03:06:15.572Z,2.40
2023-01-10T03:07:21.288Z,2.88
2023-01-10T03:08:26.957Z,2.44
2023-01-10T03:09:34.393Z,2.60
2023-01-10T03:10:40.176Z,2.20
2023-01-10T03:11:45.898Z,1.96
2023-01-10T03:12:51.595Z,2.72
2023-01-10T03:13:57.264Z,2.92
2023-01-10T03:15:02.957Z,3.24
2023-01-10T03:16:08.713Z,2.80
2023-01-10T03:17:14.407Z,4.16
2023-01-10T03:18:20.102Z,3.12
2023-01-10T03:19:25.806Z,3.68
2023-01-10T03:20:31.513Z,3.56
2023-01-10T03:21:37.212Z,2.52
2023-01-10T03:22:42.913Z,3.12
2023-01-10T03:23:51.315Z,3.04
2023-01-10T03:24:56.996Z,2.52
2023-01-10T03:26:02.758Z,3.20
2023-01-10T03:27:08.414Z,3.16
2023-01-10T03:28:14.093Z,2.68
2023-01-10T03:29:19.797Z,2.96
2023-01-10T03:30:26.342Z,3.24
2023-01-10T03:31:32.800Z,3.12
2023-01-10T03:32:39.308Z,3.08
2023-01-10T03:33:45.128Z,2.72
2023-01-10T03:34:50.901Z,2.36
2023-01-10T03:35:56.709Z,3.12
2023-01-10T03:37:02.469Z,1.96
2023-01-10T03:38:08.526Z,2.76
2023-01-10T03:39:14.289Z,3.60
2023-01-10T03:40:20.129Z,3.36
2023-01-10T03:41:26.077Z,1.52
2023-01-10T03:42:32.190Z,2.24
2023-01-10T03:43:37.855Z,3.28
2023-01-10T03:44:44.099Z,1.96
2023-01-10T03:45:49.938Z,3.16
2023-01-10T03:46:55.952Z,3.52
2023-01-10T03:48:01.811Z,2.76
2023-01-10T03:49:07.816Z,2.52
2023-01-10T03:50:13.495Z,2.28
2023-01-10T03:51:19.197Z,3.24
2023-01-10T03:52:24.991Z,3.20
2023-01-10T03:53:30.990Z,2.92
2023-01-10T03:54:36.686Z,2.84
2023-01-10T03:55:42.429Z,3.36
2023-01-10T03:56:48.149Z,3.68
2023-01-10T03:57:54.000Z,3.20
2023-01-10T03:58:59.799Z,3.44
2023-01-10T04:00:05.498Z,3.20
2023-01-10T04:01:11.632Z,2.16
2023-01-10T04:02:17.330Z,3.20
2023-01-10T04:03:23.032Z,3.12
2023-01-10T04:04:28.815Z,2.84
2023-01-10T04:05:34.495Z,3.64
2023-01-10T04:06:40.210Z,3.36
2023-01-10T04:07:45.959Z,3.68
2023-01-10T04:08:52.058Z,3.20
2023-01-10T04:09:57.761Z,3.20
2023-01-10T04:11:03.521Z,3.28
2023-01-10T04:12:09.656Z,3.44
2023-01-10T04:13:15.365Z,3.52
2023-01-10T04:14:21.262Z,2.20
2023-01-10T04:15:27.038Z,2.36
2023-01-10T04:16:33.790Z,2.36
2023-01-10T04:17:39.743Z,3.08
2023-01-10T04:18:45.511Z,3.84
2023-01-10T04:19:51.349Z,3.12
2023-01-10T04:20:57.891Z,3.48
2023-01-10T04:22:03.769Z,3.04
2023-01-10T04:23:10.150Z,3.36
2023-01-10T04:24:16.091Z,3.84
2023-01-10T04:25:22.752Z,3.84
2023-01-10T04:26:28.591Z,3.44
2023-01-10T04:27:34.289Z,3.52
2023-01-10T04:28:40.087Z,3.20
2023-01-10T04:29:45.847Z,3.76
2023-01-10T04:30:51.627Z,4.08
2023-01-10T04:31:57.493Z,4.08
2023-01-10T04:33:03.257Z,4.08
2023-01-10T04:34:09.045Z,4.28
2023-01-10T04:35:14.731Z,4.56
2023-01-10T04:36:20.436Z,3.84
2023-01-10T04:37:26.127Z,4.32
2023-01-10T04:38:31.812Z,3.68
2023-01-10T04:39:37.499Z,4.00
2023-01-10T04:40:43.194Z,3.68
2023-01-10T04:41:48.896Z,3.68
2023-01-10T04:42:54.600Z,3.68
2023-01-10T04:44:00.336Z,3.32
2023-01-10T04:45:06.478Z,3.80
2023-01-10T04:46:12.161Z,3.28
2023-01-10T04:47:17.830Z,3.92
2023-01-10T04:48:24.346Z,4.72
2023-01-10T04:49:30.178Z,3.92
2023-01-10T04:50:35.912Z,3.76
2023-01-10T04:51:41.745Z,4.64
2023-01-10T04:52:47.521Z,3.44
2023-01-10T04:53:53.349Z,3.44
2023-01-10T04:54:59.109Z,3.76
2023-01-10T04:56:04.793Z,4.16
2023-01-10T04:57:10.540Z,4.16
2023-01-10T04:58:16.150Z,3.96
2023-01-10T04:59:21.762Z,4.00
2023-01-10T05:00:27.387Z,3.60
2023-01-10T05:01:33.090Z,3.36
2023-01-10T05:02:38.740Z,3.72
2023-01-10T05:03:44.381Z,3.60
2023-01-10T05:04:50.056Z,3.36
2023-01-10T05:05:55.762Z,3.56
2023-01-10T05:07:01.839Z,3.20
2023-01-10T05:08:07.447Z,2.80
2023-01-10T05:09:13.248Z,3.68
2023-01-10T05:10:18.736Z,3.28
2023-01-10T05:11:24.993Z,3.12
2023-01-10T05:12:30.757Z,3.32
2023-01-10T05:13:36.448Z,3.20
2023-01-10T05:14:42.716Z,3.32
2023-01-10T05:15:49.013Z,3.12
2023-01-10T05:16:55.335Z,3.76
2023-01-10T05:18:01.225Z,2.96
2023-01-10T05:19:06.937Z,3.36
2023-01-10T05:20:12.546Z,3.12
2023-01-10T05:21:18.146Z,3.04
2023-01-10T05:22:23.889Z,3.36
2023-01-10T05:23:30.191Z,3.04
2023-01-10T05:24:35.980Z,2.84
2023-01-10T05:25:41.691Z,3.12
2023-01-10T05:26:47.231Z,3.36
2023-01-10T05:27:52.775Z,3.12
2023-01-10T05:28:58.343Z,3.04
2023-01-10T05:30:04.066Z,3.40
2023-01-10T05:31:09.673Z,3.84
2023-01-10T05:32:15.327Z,2.96
2023-01-10T05:33:20.961Z,3.60
2023-01-10T05:34:26.591Z,2.80
2023-01-10T05:35:32.195Z,2.76
2023-01-10T05:36:37.794Z,2.84
2023-01-10T05:37:43.472Z,2.84
2023-01-10T05:38:49.414Z,2.72
2023-01-10T05:39:55.026Z,3.16
2023-01-10T05:41:00.740Z,2.76
2023-01-10T05:42:07.057Z,2.88
2023-01-10T05:43:12.754Z,3.28
2023-01-10T05:44:19.123Z,2.88
2023-01-10T05:45:25.527Z,3.08
2023-01-10T05:46:31.246Z,2.40
2023-01-10T05:47:37.019Z,2.32
2023-01-10T05:48:42.700Z,2.68
2023-01-10T05:49:48.287Z,3.12
2023-01-10T05:50:53.941Z,2.68
2023-01-10T05:51:59.539Z,2.92
2023-01-10T05:53:05.204Z,1.92
2023-01-10T05:54:10.831Z,2.72
2023-01-10T05:55:16.452Z,2.12
2023-01-10T05:56:22.056Z,1.68
2023-01-10T05:57:27.632Z,2.40
2023-01-10T05:58:33.251Z,1.36
2023-01-10T05:59:38.869Z,2.00
2023-01-10T06:00:44.534Z,1.56
2023-01-10T06:01:50.173Z,0.80
2023-01-10T06:02:55.848Z,0.68
2023-01-10T06:04:01.547Z,2.24
2023-01-10T06:05:07.179Z,0.84
2023-01-10T06:06:12.857Z,1.64
2023-01-10T06:07:18.509Z,1.52
2023-01-10T06:08:24.158Z,1.36
2023-01-10T06:09:29.775Z,0.48
2023-01-10T06:10:35.477Z,1.04
2023-01-10T06:11:41.119Z,1.60
2023-01-10T06:12:46.736Z,1.00
2023-01-10T06:13:52.359Z,1.08
2023-01-10T06:14:58.001Z,1.52
2023-01-10T06:16:03.656Z,2.04
2023-01-10T06:17:09.378Z,2.80
2023-01-10T06:18:14.972Z,2.72
2023-01-10T06:19:20.611Z,2.68
2023-01-10T06:20:26.280Z,2.68
2023-01-10T06:21:31.897Z,2.68
2023-01-10T06:22:37.509Z,2.80
2023-01-10T06:23:43.154Z,3.00
2023-01-10T06:24:48.762Z,2.68
2023-01-10T06:25:54.347Z,2.52
2023-01-10T06:26:59.942Z,3.84
2023-01-10T06:28:05.447Z,3.20
2023-01-10T06:29:10.941Z,3.40
2023-01-10T06:30:16.443Z,2.40
2023-01-10T06:31:22.795Z,2.92
2023-01-10T06:32:28.354Z,2.56
2023-01-10T06:33:33.893Z,2.80
2023-01-10T06:34:39.427Z,2.60
2023-01-10T06:35:45.040Z,2.32
2023-01-10T06:36:50.660Z,1.72
2023-01-10T06:37:56.239Z,3.04
2023-01-10T06:39:01.847Z,3.12
2023-01-10T06:40:07.434Z,2.36
2023-01-10T06:41:13.321Z,3.28
2023-01-10T06:42:18.927Z,2.64
2023-01-10T06:43:25.910Z,3.32
2023-01-10T06:44:31.678Z,2.00
2023-01-10T06:45:37.262Z,2.68
2023-01-10T06:46:42.809Z,3.04
2023-01-10T06:47:48.448Z,2.76
2023-01-10T06:48:54.025Z,3.28
2023-01-10T06:49:59.537Z,3.20
2023-01-10T06:51:05.072Z,3.72
2023-01-10T06:52:10.562Z,2.88
2023-01-10T06:53:16.114Z,2.92
2023-01-10T06:54:21.587Z,2.92
2023-01-10T06:55:27.071Z,1.76
2023-01-10T06:56:32.557Z,1.80
2023-01-10T06:57:38.109Z,1.52
2023-01-10T06:58:44.032Z,3.08
2023-01-10T06:59:49.576Z,2.16
2023-01-10T07:00:55.158Z,2.52
2023-01-10T07:02:00.779Z,2.32
2023-01-10T07:03:06.339Z,2.56
2023-01-10T07:04:11.988Z,2.24
2023-01-10T07:05:17.476Z,0.76
2023-01-10T07:06:22.990Z,1.12
2023-01-10T07:07:28.475Z,2.92
2023-01-10T07:08:33.975Z,1.96
2023-01-10T07:09:39.558Z,2.36
2023-01-10T07:10:45.154Z,1.40
2023-01-10T07:11:50.741Z,2.08
2023-01-10T07:12:56.252Z,1.40
2023-01-10T07:14:01.825Z,2.52
2023-01-10T07:15:07.472Z,2.68
2023-01-10T07:16:13.277Z,3.68
2023-01-10T07:17:18.907Z,2.76
2023-01-10T07:18:24.537Z,2.44
2023-01-10T07:19:31.591Z,3.12
2023-01-10T07:20:37.290Z,3.64
2023-01-10T07:21:42.900Z,3.08
2023-01-10T07:22:48.500Z,3.20
2023-01-10T07:23:54.086Z,3.60
2023-01-10T07:24:59.684Z,2.80
2023-01-10T07:26:05.281Z,2.92
2023-01-10T07:27:10.915Z,2.92
2023-01-10T07:28:16.505Z,3.04
2023-01-10T07:29:22.067Z,3.84
2023-01-10T07:30:27.650Z,3.40
2023-01-10T07:31:33.313Z,3.72
2023-01-10T07:32:38.908Z,4.00
2023-01-10T07:33:44.511Z,4.16
2023-01-10T07:34:50.173Z,2.92
2023-01-10T07:35:55.864Z,3.12
2023-01-10T07:37:01.454Z,2.88
2023-01-10T07:38:07.351Z,3.36
2023-01-10T07:39:13.012Z,3.00
2023-01-10T07:40:20.212Z,3.04
2023-01-10T07:41:26.089Z,2.72
2023-01-10T07:42:31.887Z,2.00
2023-01-10T07:43:37.571Z,3.00
2023-01-10T07:44:44.034Z,2.40
2023-01-10T07:45:49.784Z,1.72
2023-01-10T07:46:55.526Z,2.48
2023-01-10T07:48:01.206Z,2.04
2023-01-10T07:49:06.938Z,2.28
2023-01-10T07:50:12.619Z,1.96
2023-01-10T07:51:18.309Z,2.60
2023-01-10T07:52:23.987Z,2.04
2023-01-10T07:53:29.691Z,2.68
2023-01-10T07:54:35.382Z,2.52
2023-01-10T07:55:41.521Z,3.04
2023-01-10T07:56:47.640Z,3.40
2023-01-10T07:57:54.212Z,2.64
2023-01-10T07:58:59.931Z,3.20
2023-01-10T08:00:05.619Z,3.44
2023-01-10T08:01:11.613Z,3.72
2023-01-10T08:02:17.645Z,3.28
2023-01-10T08:03:23.417Z,3.12
2023-01-10T08:04:29.109Z,3.48
2023-01-10T08:05:34.820Z,2.88
2023-01-10T08:06:40.726Z,3.04
2023-01-10T08:07:46.650Z,3.56
2023-01-10T08:08:52.295Z,3.60
2023-01-10T08:09:57.978Z,3.52
2023-01-10T08:11:03.634Z,3.84
2023-01-10T08:12:09.273Z,3.04
2023-01-10T08:13:18.883Z,3.28
2023-01-10T08:14:24.874Z,3.68
2023-01-10T08:15:30.484Z,2.92
2023-01-10T08:16:36.272Z,2.96
2023-01-10T08:17:41.904Z,3.44
2023-01-10T08:18:47.540Z,2.16
2023-01-10T08:19:53.343Z,1.72
2023-01-10T08:20:58.974Z,2.52
2023-01-10T08:22:04.930Z,2.20
2023-01-10T08:23:10.554Z,1.32
2023-01-10T08:24:16.205Z,1.96
2023-01-10T08:25:21.813Z,2.72
2023-01-10T08:26:27.470Z,2.60
2023-01-10T08:27:33.081Z,2.36
2023-01-10T08:28:38.709Z,2.88
2023-01-10T08:29:44.310Z,2.00
2023-01-10T08:30:50.697Z,2.64
2023-01-10T08:31:56.323Z,3.20
2023-01-10T08:33:01.917Z,2.80
2023-01-10T08:34:07.505Z,2.60
2023-01-10T08:35:13.124Z,2.64
2023-01-10T08:36:18.709Z,2.92
2023-01-10T08:37:24.281Z,3.20
2023-01-10T08:38:29.894Z,2.60
2023-01-10T08:39:35.475Z,2.80
2023-01-10T08:40:41.106Z,2.72
2023-01-10T08:41:46.666Z,3.16
2023-01-10T08:42:52.215Z,2.08
2023-01-10T08:43:58.032Z,3.32
2023-01-10T08:45:03.567Z,2.64
2023-01-10T08:46:09.173Z,3.08
2023-01-10T08:47:14.861Z,3.08
2023-01-10T08:48:20.415Z,3.36
2023-01-10T08:49:25.937Z,3.08
2023-01-10T08:50:31.477Z,3.00
2023-01-10T08:51:37.023Z,3.24
2023-01-10T08:52:42.552Z,2.92
2023-01-10T08:53:48.068Z,2.32
2023-01-10T08:54:53.640Z,2.76
2023-01-10T08:55:59.160Z,2.40
2023-01-10T08:57:04.713Z,2.84
2023-01-10T08:58:10.252Z,3.08
2023-01-10T08:59:16.565Z,2.80
2023-01-10T09:00:22.873Z,2.68
2023-01-10T09:01:28.794Z,2.56
2023-01-10T09:02:34.398Z,3.44
2023-01-10T09:03:40.252Z,4.24
2023-01-10T09:04:45.763Z,3.00
2023-01-10T09:05:51.280Z,2.92
2023-01-10T09:06:56.784Z,3.76
2023-01-10T09:08:02.280Z,3.40
2023-01-10T09:09:07.836Z,2.56
2023-01-10T09:10:13.287Z,2.80
2023-01-10T09:11:18.830Z,3.00
2023-01-10T09:12:24.280Z,3.08
2023-01-10T09:13:29.774Z,3.52
2023-01-10T09:14:35.241Z,3.16
2023-01-10T09:15:40.748Z,3.52
2023-01-10T09:16:47.573Z,4.56
2023-01-10T09:17:53.093Z,4.24
2023-01-10T09:18:58.539Z,3.68
2023-01-10T09:20:04.716Z,3.20
2023-01-10T09:21:10.153Z,2.36
2023-01-10T09:22:15.615Z,3.32
2023-01-10T09:23:21.052Z,4.32
2023-01-10T09:24:26.488Z,3.52
2023-01-10T09:25:31.930Z,3.56
2023-01-10T09:26:38.700Z,3.84
2023-01-10T09:27:44.171Z,3.64
2023-01-10T09:28:49.587Z,2.44
2023-01-10T09:29:55.015Z,2.56
2023-01-10T09:31:00.572Z,2.96
2023-01-10T09:32:05.970Z,3.40
2023-01-10T09:33:11.434Z,3.36
2023-01-10T09:34:16.895Z,2.36
2023-01-10T09:35:22.339Z,4.24
2023-01-10T09:36:27.871Z,3.20
2023-01-10T09:37:33.311Z,3.68
2023-01-10T09:38:38.755Z,4.00
2023-01-10T09:39:44.543Z,3.48
2023-01-10T09:40:50.101Z,3.44
2023-01-10T09:41:55.572Z,2.64
2023-01-10T09:43:01.011Z,1.92
2023-01-10T09:44:06.500Z,1.92
2023-01-10T09:45:11.917Z,3.16
2023-01-10T09:46:17.585Z,2.76
2023-01-10T09:47:23.395Z,3.24
2023-01-10T09:48:28.826Z,3.12
2023-01-10T09:49:34.267Z,2.36
2023-01-10T09:50:39.701Z,2.12
2023-01-10T09:51:45.332Z,3.44
2023-01-10T09:52:50.923Z,3.08
2023-01-10T09:54:10.139Z,3.48
2023-01-10T09:55:07.968Z,3.68
2023-01-10T09:56:13.482Z,3.92
2023-01-10T09:57:19.052Z,3.68
2023-01-10T09:58:24.587Z,3.84
2023-01-10T09:59:30.094Z,3.44
2023-01-10T10:00:35.667Z,2.84
2023-01-10T10:01:42.594Z,3.92
2023-01-10T10:02:48.091Z,4.08
2023-01-10T10:03:53.722Z,3.60
2023-01-10T10:04:59.636Z,3.20
2023-01-10T10:06:12.126Z,2.80
2023-01-10T10:07:17.059Z,3.84
2023-01-10T10:08:22.620Z,3.76
2023-01-10T10:09:28.167Z,3.60
2023-01-10T10:10:33.733Z,3.20
2023-01-10T10:11:39.319Z,3.16
2023-01-10T10:12:44.958Z,3.36
2023-01-10T10:13:50.537Z,3.28
2023-01-10T10:14:56.187Z,3.44
2023-01-10T10:16:01.847Z,3.84
2023-01-10T10:17:07.586Z,3.40
2023-01-10T10:18:13.182Z,2.76
2023-01-10T10:19:18.802Z,3.60
2023-01-10T10:20:24.423Z,3.52
2023-01-10T10:21:30.209Z,2.56
2023-01-10T10:22:35.807Z,3.04
2023-01-10T10:23:41.389Z,2.48
2023-01-10T10:24:46.971Z,3.76
2023-01-10T10:25:52.592Z,2.88
2023-01-10T10:26:58.722Z,3.24
2023-01-10T10:28:04.267Z,4.88
2023-01-10T10:29:09.806Z,3.52
2023-01-10T10:30:15.363Z,4.00
2023-01-10T10:31:20.997Z,3.00
2023-01-10T10:32:26.503Z,2.32
2023-01-10T10:33:32.064Z,3.04
2023-01-10T10:34:37.615Z,4.32
2023-01-10T10:35:43.149Z,3.32
2023-01-10T10:36:48.678Z,2.00
2023-01-10T10:37:54.189Z,2.16
2023-01-10T10:38:59.700Z,2.92
2023-01-10T10:40:05.243Z,2.64
2023-01-10T10:41:10.737Z,2.84
2023-01-10T10:42:16.277Z,3.76
2023-01-10T10:43:21.839Z,3.68
2023-01-10T10:44:27.459Z,3.48
2023-01-10T10:45:33.897Z,1.48
2023-01-10T10:46:39.394Z,1.36
2023-01-10T10:47:44.892Z,3.36
2023-01-10T10:48:50.356Z,3.92
2023-01-10T10:49:55.873Z,3.60
2023-01-10T10:51:01.339Z,3.20
2023-01-10T10:52:06.805Z,3.16
2023-01-10T10:53:12.238Z,3.84
2023-01-10T10:54:17.694Z,3.60
2023-01-10T10:55:23.128Z,4.08
2023-01-10T10:56:28.748Z,3.68
2023-01-10T10:57:34.212Z,3.72
2023-01-10T10:58:39.705Z,3.36
2023-01-10T10:59:45.124Z,3.84
2023-01-10T11:00:50.756Z,3.68
2023-01-10T11:01:56.397Z,4.80
2023-01-10T11:03:01.927Z,4.16
2023-01-10T11:04:07.362Z,3.80
2023-01-10T11:05:12.779Z,3.84
2023-01-10T11:06:18.277Z,4.24
2023-01-10T11:07:23.694Z,2.88
2023-01-10T11:08:29.125Z,3.60
2023-01-10T11:09:34.880Z,3.92
2023-01-10T11:10:40.312Z,3.52
2023-01-10T11:11:45.812Z,3.84
2023-01-10T11:12:51.262Z,4.92
2023-01-10T11:13:56.723Z,3.60
2023-01-10T11:15:02.146Z,4.16
2023-01-10T11:16:07.655Z,3.72
2023-01-10T11:17:13.084Z,3.56
2023-01-10T11:18:18.532Z,3.60
2023-01-10T11:19:23.963Z,3.28
2023-01-10T11:20:30.155Z,4.24
2023-01-10T11:21:35.623Z,5.04
2023-01-10T11:22:41.104Z,3.04
2023-01-10T11:23:46.498Z,3.60
2023-01-10T11:24:51.934Z,3.52
2023-01-10T11:25:57.394Z,3.04
2023-01-10T11:27:02.853Z,2.92
2023-01-10T11:28:10.403Z,3.36
2023-01-10T11:29:16.490Z,3.12
2023-01-10T11:30:21.887Z,3.68
2023-01-10T11:31:27.419Z,2.92
2023-01-10T11:32:32.795Z,4.44
2023-01-10T11:33:39.005Z,4.88
2023-01-10T11:34:44.505Z,3.44
2023-01-10T11:35:49.970Z,3.28
2023-01-10T11:36:55.376Z,2.68
2023-01-10T11:38:00.807Z,3.12
2023-01-10T11:39:06.294Z,3.40
2023-01-10T11:40:11.692Z,3.64
2023-01-10T11:41:17.113Z,3.84
2023-01-10T11:42:22.530Z,4.32
2023-01-10T11:43:28.408Z,4.00
2023-01-10T11:44:33.832Z,3.84
2023-01-10T11:45:39.263Z,3.72
2023-01-10T11:46:44.691Z,4.48
2023-01-10T11:47:50.125Z,5.28
2023-01-10T11:49:05.465Z,4.40
2023-01-10T11:50:06.870Z,4.40
2023-01-10T11:51:12.290Z,4.40
2023-01-10T11:52:17.715Z,3.60
2023-01-10T11:53:23.963Z,4.00
2023-01-10T11:54:29.396Z,4.56
2023-01-10T11:55:34.887Z,3.68
2023-01-10T11:56:40.393Z,4.08
2023-01-10T11:57:45.943Z,3.52
2023-01-10T11:58:51.421Z,2.64
2023-01-10T11:59:57.011Z,4.88
2023-01-10T12:01:02.534Z,3.76
2023-01-10T12:02:08.033Z,3.60
2023-01-10T12:03:13.535Z,4.08
2023-01-10T12:04:19.027Z,3.76
2023-01-10T12:05:24.596Z,3.76
2023-01-10T12:06:30.059Z,2.12
2023-01-10T12:07:35.532Z,2.48
2023-01-10T12:08:41.000Z,2.40
2023-01-10T12:09:46.513Z,4.16
2023-01-10T12:10:51.956Z,2.96
2023-01-10T12:11:57.456Z,3.76
2023-01-10T12:13:02.971Z,4.20
2023-01-10T12:14:08.384Z,4.16
2023-01-10T12:15:13.825Z,3.28
2023-01-10T12:16:19.313Z,2.76
2023-01-10T12:17:24.790Z,4.16
2023-01-10T12:18:30.230Z,4.96
2023-01-10T12:19:35.706Z,4.56
2023-01-10T12:20:41.188Z,4.08
2023-01-10T12:21:46.687Z,3.84
2023-01-10T12:22:52.172Z,3.92
2023-01-10T12:23:57.658Z,3.84
2023-01-10T12:25:03.897Z,3.72
2023-01-10T12:26:12.192Z,3.84
2023-01-10T12:27:17.804Z,2.96
2023-01-10T12:28:23.278Z,3.36
2023-01-10T12:29:28.664Z,4.00
2023-01-10T12:30:34.110Z,4.24
2023-01-10T12:31:39.511Z,3.28
2023-01-10T12:32:44.954Z,3.76
2023-01-10T12:33:50.382Z,3.60
2023-01-10T12:34:57.759Z,3.60
2023-01-10T12:36:03.865Z,3.84
2023-01-10T12:37:09.357Z,4.08
2023-01-10T12:38:14.866Z,4.40
2023-01-10T12:39:20.362Z,4.80
2023-01-10T12:40:25.878Z,3.36
2023-01-10T12:41:31.382Z,4.12
2023-01-10T12:42:36.904Z,5.28
2023-01-10T12:43:42.448Z,3.84
2023-01-10T12:44:48.019Z,3.52
2023-01-10T12:45:54.291Z,2.88
2023-01-10T12:47:07.343Z,2.64
2023-01-10T12:48:11.340Z,3.52
2023-01-10T12:49:16.865Z,3.68
2023-01-10T12:50:22.418Z,4.00
2023-01-10T12:51:27.924Z,3.44
2023-01-10T12:52:33.441Z,3.32
2023-01-10T12:53:38.912Z,4.16
2023-01-10T12:54:44.402Z,4.24
2023-01-10T12:55:49.868Z,4.56
2023-01-10T12:56:55.325Z,4.56
2023-01-10T12:58:00.820Z,3.52
2023-01-10T12:59:06.265Z,4.00
2023-01-10T13:00:11.726Z,3.36
2023-01-10T13:01:17.316Z,4.32
2023-01-10T13:02:22.976Z,3.92
2023-01-10T13:03:28.510Z,2.64
2023-01-10T13:04:33.984Z,4.00
2023-01-10T13:05:40.254Z,3.92
2023-01-10T13:06:45.774Z,3.52
2023-01-10T13:07:51.284Z,4.24
2023-01-10T13:08:56.793Z,4.16
2023-01-10T13:10:03.123Z,4.32
2023-01-10T13:11:08.646Z,3.68
2023-01-10T13:12:14.163Z,4.16
2023-01-10T13:13:19.692Z,3.84
2023-01-10T13:14:25.533Z,4.16
2023-01-10T13:15:31.190Z,4.40
2023-01-10T13:16:36.681Z,4.80
2023-01-10T13:17:42.243Z,4.28
2023-01-10T13:18:47.771Z,3.36
2023-01-10T13:19:53.289Z,4.48
2023-01-10T13:20:58.813Z,3.12
2023-01-10T13:22:04.326Z,2.96
2023-01-10T13:23:09.859Z,3.28
2023-01-10T13:24:15.376Z,4.24
2023-01-10T13:25:20.905Z,3.00
2023-01-10T13:26:26.380Z,4.16
2023-01-10T13:27:31.865Z,4.32
2023-01-10T13:28:37.352Z,3.84
2023-01-10T13:29:43.329Z,6.08
2023-01-10T13:30:48.861Z,4.72
2023-01-10T13:31:54.326Z,4.32
2023-01-10T13:32:59.814Z,4.72
2023-01-10T13:34:05.295Z,5.20
2023-01-10T13:35:10.737Z,4.24
2023-01-10T13:36:16.169Z,4.80
2023-01-10T13:37:21.604Z,4.56
2023-01-10T13:38:27.044Z,3.60
2023-01-10T13:39:32.499Z,5.28
2023-01-10T13:40:37.958Z,5.20
2023-01-10T13:41:43.392Z,4.96
2023-01-10T13:42:48.885Z,5.84
2023-01-10T13:43:54.357Z,3.68
2023-01-10T13:44:59.824Z,3.92
2023-01-10T13:46:05.343Z,4.00
2023-01-10T13:47:10.807Z,4.48
2023-01-10T13:48:16.559Z,3.44
2023-01-10T13:49:22.060Z,3.84
2023-01-10T13:50:27.641Z,4.16
2023-01-10T13:51:33.131Z,5.12
2023-01-10T13:52:38.637Z,5.20
2023-01-10T13:53:44.143Z,3.84
2023-01-10T13:54:49.629Z,4.40
2023-01-10T13:55:55.148Z,3.84
2023-01-10T13:57:00.624Z,3.28
2023-01-10T13:58:06.170Z,2.72
2023-01-10T13:59:11.664Z,2.60
2023-01-10T14:00:17.144Z,3.04
2023-01-10T14:01:22.754Z,2.68
2023-01-10T14:02:28.290Z,3.40
2023-01-10T14:03:33.791Z,4.16
2023-01-10T14:04:39.420Z,4.32
2023-01-10T14:05:44.882Z,4.56
2023-01-10T14:06:50.403Z,3.44
2023-01-10T14:07:55.898Z,3.28
2023-01-10T14:09:01.395Z,3.64
2023-01-10T14:10:06.947Z,3.20
2023-01-10T14:11:12.503Z,2.40
2023-01-10T14:12:18.017Z,3.36
2023-01-10T14:13:23.516Z,3.32
2023-01-10T14:14:29.037Z,3.12
2023-01-10T14:15:34.627Z,4.00
2023-01-10T14:16:46.291Z,4.48
2023-01-10T14:17:51.797Z,3.52
2023-01-10T14:18:57.280Z,3.44
2023-01-10T14:20:02.799Z,3.04
2023-01-10T14:21:08.267Z,3.20
2023-01-10T14:22:13.799Z,2.92
2023-01-10T14:23:19.361Z,3.28
2023-01-10T14:24:24.876Z,3.00
2023-01-10T14:25:30.363Z,2.72
2023-01-10T14:26:35.978Z,2.80
2023-01-10T14:27:41.466Z,2.16
2023-01-10T14:28:46.998Z,4.72
2023-01-10T14:29:53.303Z,3.08
2023-01-10T14:30:59.557Z,3.04
2023-01-10T14:32:05.043Z,3.24
2023-01-10T14:33:10.625Z,3.08
2023-01-10T14:34:17.704Z,2.92
2023-01-10T14:35:23.207Z,3.36